Time;durP1;ratioP1;P1;durP2;ratioP2;P2;SDS_P1;SDS_P2;PMS_P1;PMS_P2;Temp;Humidity;BMP_temperature;BMP_pressure;BME280_temperature;BME280_humidity;BME280_pressure;Samples;Min_cycle;Max_cycle;Signal;HPM_P1;HPM_P2
2022/07/06 00:01:45;;;;;;;5.77;4.03;;;16.90;99.90;;;;;;5002636;28;20525;-75
2022/07/06 00:04:13;;;;;;;5.50;3.80;;;16.90;99.90;;;;;;5006238;28;20461;-74
2022/07/06 00:06:40;;;;;;;4.90;3.80;;;16.90;99.90;;;;;;4998686;28;20504;-73
2022/07/06 00:09:07;;;;;;;5.53;3.93;;;16.90;99.90;;;;;;4993480;28;20509;-74
2022/07/06 00:11:34;;;;;;;4.20;3.87;;;16.80;99.90;;;;;;4997869;28;20515;-73
2022/07/06 00:14:00;;;;;;;4.17;3.40;;;16.80;99.90;;;;;;4999297;28;20501;-74
2022/07/06 00:16:28;;;;;;;5.93;3.70;;;16.80;99.90;;;;;;5000747;28;20871;-74
2022/07/06 00:18:55;;;;;;;6.70;3.43;;;16.70;99.90;;;;;;4998172;28;20834;-74
2022/07/06 00:21:23;;;;;;;3.90;3.60;;;16.60;99.90;;;;;;4994200;28;20455;-73
2022/07/06 00:23:51;;;;;;;7.83;3.77;;;16.70;99.90;;;;;;4999124;28;20430;-74
2022/07/06 00:26:18;;;;;;;4.10;3.70;;;16.60;99.90;;;;;;4994258;28;20475;-74
2022/07/06 00:28:44;;;;;;;10.37;3.97;;;16.60;99.90;;;;;;5006174;28;20488;-73
2022/07/06 00:31:11;;;;;;;15.83;4.63;;;16.50;99.90;;;;;;4995784;28;20446;-74
2022/07/06 00:33:38;;;;;;;4.50;3.70;;;16.50;99.90;;;;;;5002249;28;20456;-74
2022/07/06 00:36:05;;;;;;;3.97;3.67;;;16.40;99.90;;;;;;5001337;28;20996;-74
2022/07/06 00:38:33;;;;;;;5.87;3.80;;;16.40;99.90;;;;;;4992719;28;20514;-74
2022/07/06 00:41:00;;;;;;;4.37;3.97;;;16.40;99.90;;;;;;4996508;28;20501;-73
2022/07/06 00:43:26;;;;;;;5.50;3.67;;;16.40;99.90;;;;;;4992320;28;20417;-74
2022/07/06 00:45:53;;;;;;;5.93;3.83;;;16.30;99.90;;;;;;5001960;28;20470;-74
2022/07/06 00:48:20;;;;;;;5.47;3.50;;;16.30;99.90;;;;;;4998875;28;20480;-74
2022/07/06 00:50:47;;;;;;;11.00;4.07;;;16.30;99.90;;;;;;4992556;28;20426;-73
2022/07/06 00:53:15;;;;;;;4.60;3.33;;;16.20;99.90;;;;;;4992598;28;20433;-74
2022/07/06 00:55:43;;;;;;;6.97;4.10;;;16.10;99.90;;;;;;4992768;28;20450;-74
2022/07/06 00:58:11;;;;;;;6.70;4.07;;;16.00;99.90;;;;;;5009912;28;20455;-74
2022/07/06 01:00:38;;;;;;;7.30;3.97;;;16.00;99.90;;;;;;5004761;28;20488;-74
2022/07/06 01:03:05;;;;;;;4.83;4.33;;;16.00;99.90;;;;;;4992475;28;20490;-74
2022/07/06 01:05:31;;;;;;;4.20;3.80;;;15.90;99.90;;;;;;4995197;28;20976;-73
2022/07/06 01:07:58;;;;;;;8.40;3.93;;;15.90;99.90;;;;;;4999207;28;20482;-73
2022/07/06 01:10:25;;;;;;;4.37;3.40;;;15.90;99.90;;;;;;4995904;28;20436;-74
2022/07/06 01:12:53;;;;;;;4.27;3.87;;;15.90;99.90;;;;;;4996354;28;20451;-74
2022/07/06 01:15:21;;;;;;;5.57;4.20;;;15.90;99.90;;;;;;4991858;28;20489;-73
2022/07/06 01:17:49;;;;;;;13.27;4.33;;;15.90;99.90;;;;;;4992658;28;20852;-73
2022/07/06 01:20:17;;;;;;;8.30;3.80;;;15.90;99.90;;;;;;4998160;28;20445;-73
2022/07/06 01:22:45;;;;;;;4.43;4.03;;;15.90;99.90;;;;;;5000083;28;20422;-73
2022/07/06 01:25:12;;;;;;;9.50;3.50;;;15.80;99.90;;;;;;5000934;28;20519;-73
2022/07/06 01:27:40;;;;;;;7.50;4.47;;;15.80;99.90;;;;;;4993959;28;20455;-73
2022/07/06 01:30:09;;;;;;;5.97;3.73;;;15.80;99.90;;;;;;5008062;28;20429;-73
2022/07/06 01:32:35;;;;;;;4.10;3.70;;;15.70;99.90;;;;;;4994174;28;20461;-73
2022/07/06 01:35:03;;;;;;;6.10;3.70;;;15.80;99.90;;;;;;5004635;28;20467;-73
2022/07/06 01:37:31;;;;;;;5.07;4.03;;;15.80;99.90;;;;;;5002272;28;20481;-74
2022/07/06 01:40:00;;;;;;;6.23;4.67;;;15.70;99.90;;;;;;4995813;28;20492;-74
2022/07/06 01:42:27;;;;;;;7.10;3.70;;;15.70;99.90;;;;;;5004505;28;20488;-73
2022/07/06 01:44:54;;;;;;;4.70;3.87;;;15.60;99.90;;;;;;5000036;28;20461;-73
2022/07/06 01:47:21;;;;;;;7.47;4.47;;;15.60;99.90;;;;;;5012145;28;20446;-74
2022/07/06 01:49:48;;;;;;;5.30;3.30;;;15.60;99.90;;;;;;5007985;28;20498;-74
2022/07/06 01:52:14;;;;;;;3.50;3.20;;;15.50;99.90;;;;;;4996073;28;20433;-74
2022/07/06 01:54:43;;;;;;;5.10;3.80;;;15.50;99.90;;;;;;4999371;28;20470;-73
2022/07/06 01:57:09;;;;;;;7.40;3.37;;;15.50;99.90;;;;;;4995598;28;20454;-73
2022/07/06 01:59:36;;;;;;;3.87;3.47;;;15.40;99.90;;;;;;4996397;28;20947;-74
2022/07/06 02:02:03;;;;;;;6.70;4.53;;;15.40;99.90;;;;;;4995729;28;20799;-74
2022/07/06 02:04:30;;;;;;;6.90;4.10;;;15.40;99.90;;;;;;4994542;28;20430;-73
2022/07/06 02:06:56;;;;;;;4.67;3.23;;;15.40;99.90;;;;;;4999504;28;20434;-73
2022/07/06 02:09:23;;;;;;;4.00;3.53;;;15.40;99.90;;;;;;4995575;28;20453;-73
2022/07/06 02:11:51;;;;;;;3.90;3.40;;;15.40;99.90;;;;;;5002045;28;20447;-74
2022/07/06 02:14:18;;;;;;;4.33;3.67;;;15.40;99.90;;;;;;5012863;28;20454;-73
2022/07/06 02:16:44;;;;;;;7.60;4.00;;;15.30;99.90;;;;;;4999368;28;20439;-74
2022/07/06 02:19:11;;;;;;;5.33;3.40;;;15.30;99.90;;;;;;5009775;28;20429;-73
2022/07/06 02:21:38;;;;;;;8.00;3.60;;;15.30;99.90;;;;;;5000960;28;20426;-73
2022/07/06 02:24:05;;;;;;;3.60;3.40;;;15.30;99.90;;;;;;4995250;28;20571;-74
2022/07/06 02:26:32;;;;;;;5.90;4.17;;;15.30;99.90;;;;;;4999232;28;20485;-74
2022/07/06 02:28:59;;;;;;;6.30;4.00;;;15.40;99.90;;;;;;5012161;28;20946;-73
2022/07/06 02:31:26;;;;;;;8.53;3.83;;;15.40;99.90;;;;;;5004824;28;20447;-73
2022/07/06 02:33:53;;;;;;;4.50;3.80;;;15.40;99.90;;;;;;5005824;28;20428;-74
2022/07/06 02:36:19;;;;;;;8.17;3.70;;;15.40;99.90;;;;;;5004270;28;20897;-73
2022/07/06 02:38:46;;;;;;;9.60;4.10;;;15.40;99.90;;;;;;5009102;28;20441;-74
2022/07/06 02:41:13;;;;;;;12.77;4.03;;;15.30;99.90;;;;;;5008170;28;20459;-74
2022/07/06 02:43:40;;;;;;;6.00;4.33;;;15.30;99.90;;;;;;5008340;28;20457;-74
2022/07/06 02:46:08;;;;;;;5.50;3.87;;;15.30;99.90;;;;;;5006871;28;20453;-73
2022/07/06 02:48:34;;;;;;;4.00;3.60;;;15.20;99.90;;;;;;4999763;28;20947;-74
2022/07/06 02:51:01;;;;;;;3.33;3.03;;;15.20;99.90;;;;;;4994420;28;20454;-74
2022/07/06 02:53:28;;;;;;;8.13;3.47;;;15.20;99.90;;;;;;5002156;28;20507;-73
2022/07/06 02:55:54;;;;;;;4.80;3.40;;;15.10;99.90;;;;;;5009628;28;20441;-73
2022/07/06 02:58:21;;;;;;;4.70;3.90;;;15.10;99.90;;;;;;5002299;28;20421;-73
2022/07/06 03:00:48;;;;;;;4.00;3.60;;;15.10;99.90;;;;;;4994966;28;20518;-73
2022/07/06 03:03:15;;;;;;;5.17;3.40;;;15.10;99.90;;;;;;4999576;28;20459;-73
2022/07/06 03:05:42;;;;;;;3.60;3.30;;;15.00;99.90;;;;;;5009201;28;20490;-73
2022/07/06 03:08:09;;;;;;;8.10;3.50;;;15.00;99.90;;;;;;5011520;28;21009;-73
2022/07/06 03:10:35;;;;;;;4.23;3.50;;;15.00;99.90;;;;;;5003028;28;20505;-74
2022/07/06 03:13:02;;;;;;;10.70;3.77;;;14.90;99.90;;;;;;4994785;28;20459;-73
2022/07/06 03:15:29;;;;;;;6.00;3.77;;;14.90;99.90;;;;;;4999314;28;20471;-74
2022/07/06 03:17:55;;;;;;;6.27;3.70;;;14.80;99.90;;;;;;5006991;28;20516;-74
2022/07/06 03:20:23;;;;;;;6.50;3.50;;;14.80;99.90;;;;;;5002198;28;20450;-74
2022/07/06 03:22:50;;;;;;;3.03;2.83;;;14.80;99.90;;;;;;5010658;28;20425;-73
2022/07/06 03:25:16;;;;;;;7.60;3.50;;;14.70;99.90;;;;;;4999507;28;20537;-74
2022/07/06 03:27:43;;;;;;;4.17;3.30;;;14.70;99.90;;;;;;5002995;28;20446;-73
2022/07/06 03:30:10;;;;;;;6.67;3.60;;;14.60;99.90;;;;;;4996306;28;20453;-73
2022/07/06 03:32:37;;;;;;;5.67;3.50;;;14.60;99.90;;;;;;5007570;28;20994;-74
2022/07/06 03:35:05;;;;;;;4.50;3.50;;;14.60;99.90;;;;;;5007431;28;20537;-74
2022/07/06 03:37:33;;;;;;;8.67;3.50;;;14.60;99.90;;;;;;5007928;28;20806;-74
2022/07/06 03:39:59;;;;;;;5.03;3.77;;;14.50;99.90;;;;;;4996661;28;21001;-74
2022/07/06 03:42:26;;;;;;;6.70;3.60;;;14.50;99.90;;;;;;4998642;28;20451;-73
2022/07/06 03:44:52;;;;;;;4.70;3.20;;;14.50;99.90;;;;;;5000942;28;20470;-73
2022/07/06 03:47:19;;;;;;;3.90;3.30;;;14.50;99.90;;;;;;5009113;28;20478;-74
2022/07/06 03:49:46;;;;;;;3.90;3.50;;;14.50;99.90;;;;;;4999370;28;20874;-73
2022/07/06 03:52:12;;;;;;;6.53;3.37;;;14.50;99.90;;;;;;4994688;28;20455;-73
2022/07/06 03:54:40;;;;;;;4.73;3.30;;;14.50;99.90;;;;;;4993311;28;21019;-73
2022/07/06 03:57:07;;;;;;;5.30;3.67;;;14.50;99.90;;;;;;4995049;28;20502;-73
2022/07/06 03:59:33;;;;;;;4.37;3.97;;;14.50;99.90;;;;;;5011956;28;20450;-71
2022/07/06 04:02:01;;;;;;;5.50;3.90;;;14.50;99.90;;;;;;5003609;28;20455;-69
2022/07/06 04:04:28;;;;;;;6.33;3.93;;;14.50;99.90;;;;;;4996538;28;20452;-70
2022/07/06 04:06:55;;;;;;;6.63;3.53;;;14.60;99.90;;;;;;4997997;28;20513;-70
2022/07/06 04:09:21;;;;;;;6.80;3.43;;;14.60;99.90;;;;;;5008337;28;20509;-69
2022/07/06 04:11:49;;;;;;;5.93;3.47;;;14.70;99.90;;;;;;5002375;28;20455;-70
2022/07/06 04:14:16;;;;;;;4.27;3.23;;;14.80;99.90;;;;;;5001476;28;20871;-75
2022/07/06 04:16:43;;;;;;;4.60;2.60;;;14.80;99.90;;;;;;4992388;28;20486;-70
2022/07/06 04:19:09;;;;;;;6.23;3.50;;;14.90;99.90;;;;;;5001270;28;20510;-70
2022/07/06 04:21:36;;;;;;;5.25;3.10;;;14.90;99.90;;;;;;4992485;28;21958;-71
2022/07/06 04:24:03;;;;;;;3.30;3.00;;;14.90;99.90;;;;;;4991446;28;20271;-72
2022/07/06 04:26:30;;;;;;;5.63;3.57;;;14.80;99.90;;;;;;4996428;28;20482;-71
2022/07/06 04:28:58;;;;;;;4.33;3.77;;;14.80;99.90;;;;;;5002014;28;20835;-71
2022/07/06 04:31:24;;;;;;;6.87;3.77;;;14.80;99.90;;;;;;4993136;28;20490;-71
2022/07/06 04:33:51;;;;;;;4.30;3.77;;;14.80;99.90;;;;;;4988885;28;20451;-71
2022/07/06 04:36:17;;;;;;;4.40;3.13;;;14.80;99.90;;;;;;4996144;28;20543;-71
2022/07/06 04:38:47;;;;;;;6.03;3.30;;;14.80;99.90;;;;;;4992428;28;20517;-71
2022/07/06 04:41:14;;;;;;;7.33;4.23;;;14.80;99.90;;;;;;4998317;28;20510;-72
2022/07/06 04:43:41;;;;;;;6.43;3.30;;;14.70;99.90;;;;;;5000696;28;20508;-71
2022/07/06 04:46:09;;;;;;;5.90;3.60;;;14.70;99.90;;;;;;5008174;28;21140;-71
2022/07/06 04:48:39;;;;;;;5.43;3.73;;;14.70;99.90;;;;;;5009357;28;20458;-71
2022/07/06 04:51:05;;;;;;;5.80;3.47;;;14.70;99.90;;;;;;5001860;28;20454;-72
2022/07/06 04:53:32;;;;;;;4.80;3.77;;;14.70;99.90;;;;;;4998721;28;20861;-71
2022/07/06 04:55:59;;;;;;;6.07;3.80;;;14.70;99.90;;;;;;4993581;28;20467;-72
2022/07/06 04:58:25;;;;;;;9.17;4.67;;;14.70;99.90;;;;;;5007399;28;20504;-71
2022/07/06 05:00:53;;;;;;;3.77;3.47;;;14.70;99.90;;;;;;4996837;28;20501;-71
2022/07/06 05:03:21;;;;;;;6.80;4.27;;;14.80;99.90;;;;;;4989886;28;20455;-71
2022/07/06 05:05:48;;;;;;;4.70;3.60;;;14.80;99.90;;;;;;4996837;28;20491;-71
2022/07/06 05:08:15;;;;;;;4.30;3.80;;;14.80;99.90;;;;;;5002942;28;20474;-71
2022/07/06 05:10:41;;;;;;;4.27;3.97;;;14.80;99.90;;;;;;4999948;28;20454;-71
2022/07/06 05:13:08;;;;;;;7.67;4.23;;;14.90;99.90;;;;;;4991853;28;20543;-71
2022/07/06 05:15:35;;;;;;;6.63;4.00;;;14.90;99.90;;;;;;4990960;28;20482;-71
2022/07/06 05:18:02;;;;;;;7.67;3.80;;;15.00;99.90;;;;;;4989107;28;20459;-71
2022/07/06 05:20:30;;;;;;;11.93;3.87;;;15.10;99.90;;;;;;4992014;28;20963;-72
2022/07/06 05:22:56;;;;;;;12.70;4.30;;;15.20;99.90;;;;;;4992339;28;20454;-71
2022/07/06 05:25:23;;;;;;;5.77;3.60;;;15.30;99.90;;;;;;4992272;28;20482;-71
2022/07/06 05:27:50;;;;;;;7.33;4.70;;;15.40;99.90;;;;;;4992530;28;20465;-72
2022/07/06 05:30:16;;;;;;;4.23;3.80;;;15.60;99.90;;;;;;4992688;28;20802;-71
2022/07/06 05:32:43;;;;;;;5.10;4.40;;;15.70;99.90;;;;;;4992629;28;20446;-71
2022/07/06 05:35:10;;;;;;;11.33;4.53;;;15.80;99.90;;;;;;4991958;28;20478;-71
2022/07/06 05:37:38;;;;;;;9.10;4.20;;;15.80;99.90;;;;;;4992153;28;20510;-71
2022/07/06 05:40:05;;;;;;;8.77;4.20;;;15.90;99.90;;;;;;4992412;28;20455;-71
2022/07/06 05:42:32;;;;;;;9.30;4.33;;;15.90;99.90;;;;;;4974900;28;20456;-71
2022/07/06 05:44:59;;;;;;;5.43;4.00;;;16.00;99.90;;;;;;4972729;28;20525;-72
2022/07/06 05:50:24;;;;;;;8.63;4.80;;;16.00;99.90;;;;;;4913187;29;20482;-71
2022/07/06 05:52:59;;;;;;;9.93;4.77;;;16.00;99.90;;;;;;4913149;29;21054;-71
2022/07/06 05:55:26;;;;;;;5.33;4.50;;;15.90;99.90;;;;;;4942025;28;20510;-71
2022/07/06 05:57:54;;;;;;;11.03;4.90;;;15.90;99.90;;;;;;4972834;28;21020;-71
2022/07/06 06:00:21;;;;;;;15.57;5.37;;;15.90;99.90;;;;;;4972514;28;20509;-71
2022/07/06 06:02:48;;;;;;;5.70;4.20;;;16.00;99.90;;;;;;4976749;28;20451;-71
2022/07/06 06:05:15;;;;;;;5.60;4.57;;;16.10;99.90;;;;;;4991961;28;20475;-71
2022/07/06 06:07:41;;;;;;;8.63;4.50;;;16.20;99.90;;;;;;4991824;28;21013;-72
2022/07/06 06:10:12;;;;;;;9.17;4.43;;;16.50;99.90;;;;;;4992082;28;20451;-72
2022/07/06 06:12:40;;;;;;;5.10;3.87;;;16.80;99.90;;;;;;4992015;28;20533;-71
2022/07/06 06:15:08;;;;;;;8.40;4.13;;;16.90;99.90;;;;;;4991669;28;20902;-71
2022/07/06 06:17:35;;;;;;;8.70;4.53;;;17.10;99.90;;;;;;4992119;28;20494;-72
2022/07/06 06:20:03;;;;;;;5.10;4.27;;;17.30;99.90;;;;;;4992109;28;20514;-71
2022/07/06 06:22:29;;;;;;;9.53;4.23;;;17.50;99.90;;;;;;4991912;28;20451;-72
2022/07/06 06:24:56;;;;;;;6.73;4.90;;;17.60;99.90;;;;;;4991283;28;20483;-72
2022/07/06 06:27:24;;;;;;;6.80;4.70;;;17.70;99.90;;;;;;4991998;28;20465;-71
2022/07/06 06:29:51;;;;;;;6.97;4.30;;;17.70;99.90;;;;;;4995403;28;20430;-71
2022/07/06 06:32:17;;;;;;;8.83;4.53;;;17.70;99.90;;;;;;4995752;28;20906;-72
2022/07/06 06:34:44;;;;;;;6.87;4.67;;;17.70;99.90;;;;;;4995146;28;20475;-73
2022/07/06 06:37:11;;;;;;;9.87;4.97;;;17.80;99.90;;;;;;4995499;28;20476;-72
2022/07/06 06:39:37;;;;;;;6.77;3.90;;;17.90;99.90;;;;;;4995249;28;20456;-71
2022/07/06 06:42:04;;;;;;;12.40;4.90;;;18.10;99.90;;;;;;4995240;28;20921;-71
2022/07/06 06:44:32;;;;;;;12.10;4.33;;;18.20;99.90;;;;;;4995151;28;20472;-71
2022/07/06 06:47:00;;;;;;;9.43;4.00;;;18.40;99.90;;;;;;4995551;28;20530;-72
2022/07/06 06:49:26;;;;;;;6.27;3.63;;;18.70;99.90;;;;;;4995304;28;20455;-71
2022/07/06 06:51:53;;;;;;;4.43;3.60;;;18.90;99.90;;;;;;4995056;28;20429;-72
2022/07/06 06:54:19;;;;;;;9.87;4.03;;;19.10;99.90;;;;;;4994929;28;20833;-72
2022/07/06 06:56:46;;;;;;;5.70;4.37;;;19.20;99.90;;;;;;4995240;28;20451;-71
2022/07/06 06:59:13;;;;;;;6.57;4.40;;;19.20;99.90;;;;;;4995080;28;20435;-71
2022/07/06 07:01:41;;;;;;;8.20;3.60;;;19.40;99.90;;;;;;4995194;28;20426;-72
2022/07/06 07:04:07;;;;;;;8.90;4.37;;;19.40;99.90;;;;;;4994685;28;20426;-72
2022/07/06 07:06:34;;;;;;;7.23;3.67;;;19.40;99.90;;;;;;4994754;28;20471;-72
2022/07/06 07:09:01;;;;;;;4.43;4.00;;;19.30;99.90;;;;;;4995054;28;20430;-72
2022/07/06 07:11:27;;;;;;;6.10;3.77;;;19.30;99.90;;;;;;4994950;28;20486;-71
2022/07/06 07:13:54;;;;;;;6.90;3.83;;;19.40;99.90;;;;;;4994488;28;20432;-71
2022/07/06 07:16:21;;;;;;;5.70;3.70;;;19.30;99.90;;;;;;4994781;28;20471;-71
2022/07/06 07:18:49;;;;;;;10.93;3.63;;;19.40;99.90;;;;;;4994654;28;20455;-72
2022/07/06 07:21:16;;;;;;;7.90;4.40;;;19.40;99.90;;;;;;4994572;28;20473;-71
2022/07/06 07:23:42;;;;;;;10.60;4.17;;;19.50;99.90;;;;;;4994304;28;20448;-72
2022/07/06 07:26:09;;;;;;;4.53;2.93;;;19.60;99.90;;;;;;4994325;28;20702;-71
2022/07/06 07:28:36;;;;;;;3.47;3.17;;;19.80;99.90;;;;;;4994580;28;20509;-73
2022/07/06 07:31:02;;;;;;;8.53;3.10;;;19.90;99.90;;;;;;4994559;28;20454;-72
2022/07/06 07:33:29;;;;;;;5.40;2.90;;;20.10;99.90;;;;;;4994611;28;20463;-73
2022/07/06 07:35:57;;;;;;;2.93;2.70;;;20.40;99.90;;;;;;4994502;28;20548;-73
2022/07/06 07:38:24;;;;;;;4.80;3.30;;;20.70;99.90;;;;;;4994322;28;20512;-73
2022/07/06 07:40:50;;;;;;;10.43;3.40;;;21.00;99.90;;;;;;4993137;28;20854;-73
2022/07/06 07:43:17;;;;;;;5.83;3.73;;;21.20;99.90;;;;;;4994158;28;20894;-72
2022/07/06 07:45:44;;;;;;;7.00;3.17;;;21.30;99.90;;;;;;4994036;28;20467;-72
2022/07/06 07:48:10;;;;;;;7.10;3.47;;;21.30;99.90;;;;;;4994476;28;20490;-73
2022/07/06 07:50:37;;;;;;;8.27;3.33;;;21.50;99.90;;;;;;4994210;28;20451;-72
2022/07/06 07:53:05;;;;;;;6.43;3.70;;;21.40;99.90;;;;;;4994191;28;20455;-73
2022/07/06 07:55:31;;;;;;;6.77;3.40;;;20.90;99.90;;;;;;4993799;28;20445;-72
2022/07/06 07:57:58;;;;;;;8.07;3.60;;;20.70;99.90;;;;;;4994198;28;20939;-72
2022/07/06 08:00:26;;;;;;;3.40;3.10;;;20.70;99.90;;;;;;4993659;28;20849;-73
2022/07/06 08:02:54;;;;;;;5.70;3.17;;;20.80;99.90;;;;;;4993832;28;20953;-72
2022/07/06 08:05:21;;;;;;;3.80;3.23;;;21.20;99.90;;;;;;4993623;28;21094;-72
2022/07/06 08:07:48;;;;;;;3.63;3.00;;;21.60;99.90;;;;;;4993878;28;20487;-73
2022/07/06 08:10:16;;;;;;;4.87;2.97;;;21.80;99.90;;;;;;4993765;28;20509;-73
2022/07/06 08:12:43;;;;;;;4.07;2.90;;;21.90;99.90;;;;;;4993698;28;20451;-70
2022/07/06 08:15:10;;;;;;;5.30;3.20;;;22.00;99.90;;;;;;4993582;28;20464;-71
2022/07/06 08:17:36;;;;;;;4.43;2.90;;;22.10;99.90;;;;;;4993718;28;20517;-71
2022/07/06 08:20:04;;;;;;;3.83;3.00;;;22.20;99.90;;;;;;4993663;28;20459;-70
2022/07/06 08:22:30;;;;;;;3.30;2.80;;;22.30;99.90;;;;;;4993647;28;20459;-71
2022/07/06 08:24:57;;;;;;;3.73;3.40;;;22.30;99.90;;;;;;4992647;28;20533;-72
2022/07/06 08:27:25;;;;;;;3.70;3.27;;;22.50;99.90;;;;;;4993969;28;20514;-71
2022/07/06 08:29:52;;;;;;;3.57;3.23;;;22.50;99.90;;;;;;4993285;28;20947;-70
2022/07/06 08:32:19;;;;;;;4.70;2.80;;;22.40;99.90;;;;;;4993276;28;20936;-70
2022/07/06 08:34:46;;;;;;;2.93;2.73;;;22.70;99.90;;;;;;4993221;28;20475;-70
2022/07/06 08:37:12;;;;;;;3.43;2.80;;;23.10;99.90;;;;;;4993314;28;20451;-72
2022/07/06 08:39:39;;;;;;;2.67;2.47;;;23.20;99.90;;;;;;4992962;28;20510;-71
2022/07/06 08:42:08;;;;;;;3.60;3.00;;;23.20;99.90;;;;;;4993301;28;20447;-71
2022/07/06 08:44:37;;;;;;;5.00;3.10;;;22.90;99.90;;;;;;4992941;28;20447;-70
2022/07/06 08:47:06;;;;;;;13.07;3.07;;;22.40;99.90;;;;;;4993247;28;20483;-71
2022/07/06 08:49:34;;;;;;;5.70;2.90;;;22.00;99.90;;;;;;4992882;28;20873;-72
2022/07/06 08:52:01;;;;;;;3.10;2.80;;;21.70;99.90;;;;;;4992691;28;20457;-73
2022/07/06 08:54:28;;;;;;;5.63;2.50;;;21.80;99.90;;;;;;4992758;28;20513;-71
2022/07/06 08:56:55;;;;;;;7.87;3.03;;;22.20;99.90;;;;;;4992981;28;20931;-72
2022/07/06 08:59:22;;;;;;;4.43;3.00;;;22.90;99.90;;;;;;4992917;28;20455;-72
2022/07/06 09:01:50;;;;;;;4.40;2.80;;;23.00;99.90;;;;;;4992783;28;20510;-72
2022/07/06 09:04:18;;;;;;;2.90;2.70;;;22.80;99.90;;;;;;4992423;28;20455;-72
2022/07/06 09:06:47;;;;;;;3.87;3.27;;;22.60;99.90;;;;;;4992572;28;20447;-71
2022/07/06 09:09:19;;;;;;;2.90;2.70;;;22.60;99.90;;;;;;4992828;28;20447;-71
2022/07/06 09:11:46;;;;;;;4.07;2.80;;;23.00;99.90;;;;;;4992794;28;21002;-71
2022/07/06 09:14:12;;;;;;;4.17;3.20;;;23.30;99.90;;;;;;4992388;28;20450;-72
2022/07/06 09:16:39;;;;;;;2.40;2.20;;;23.70;99.90;;;;;;4992407;28;20475;-71
2022/07/06 09:19:07;;;;;;;2.93;2.67;;;24.00;97.90;;;;;;4992689;28;20458;-71
2022/07/06 09:21:36;;;;;;;2.47;2.27;;;24.20;97.30;;;;;;4992628;28;20451;-72
2022/07/06 09:24:07;;;;;;;3.07;2.20;;;24.30;95.60;;;;;;4992000;28;20459;-72
2022/07/06 09:26:35;;;;;;;3.03;2.00;;;23.90;95.60;;;;;;4992333;28;20975;-72
2022/07/06 09:29:04;;;;;;;4.13;2.43;;;24.10;96.50;;;;;;4992177;28;21061;-71
2022/07/06 09:31:31;;;;;;;10.03;2.10;;;24.30;96.60;;;;;;4992477;28;20458;-71
2022/07/06 09:34:01;;;;;;;2.20;1.93;;;24.20;96.20;;;;;;4992176;28;20455;-71
2022/07/06 09:36:40;;;;;;;5.00;2.30;;;24.20;95.50;;;;;;4992704;28;20485;-71
2022/07/06 09:39:18;;;;;;;2.37;2.10;;;24.10;96.20;;;;;;4992395;28;20969;-72
2022/07/06 09:41:45;;;;;;;3.60;1.97;;;24.20;96.60;;;;;;4992077;28;20545;-72
2022/07/06 09:44:12;;;;;;;8.87;2.27;;;24.00;96.50;;;;;;4992363;28;20497;-72
2022/07/06 09:46:40;;;;;;;4.80;2.40;;;23.90;97.00;;;;;;4992324;28;20474;-72
2022/07/06 09:49:08;;;;;;;6.47;2.30;;;24.10;96.10;;;;;;4992289;28;20487;-71
2022/07/06 09:51:38;;;;;;;4.10;2.33;;;24.40;96.20;;;;;;4992301;28;20537;-72
2022/07/06 09:54:08;;;;;;;4.43;2.30;;;24.80;94.80;;;;;;4991946;28;20446;-72
2022/07/06 09:56:38;;;;;;;3.30;2.37;;;24.80;94.10;;;;;;4992334;28;20650;-71
2022/07/06 09:59:09;;;;;;;2.80;2.00;;;24.70;94.70;;;;;;4992184;28;20457;-71
2022/07/06 10:01:36;;;;;;;5.97;1.70;;;25.00;95.90;;;;;;4992431;28;20466;-71
2022/07/06 10:04:03;;;;;;;1.93;1.83;;;25.00;94.70;;;;;;4994429;28;20861;-71
2022/07/06 10:06:30;;;;;;;1.97;1.87;;;25.00;94.50;;;;;;4996066;28;20529;-72
2022/07/06 10:08:59;;;;;;;2.90;1.77;;;25.00;94.00;;;;;;4995989;28;21010;-72
2022/07/06 10:11:28;;;;;;;2.30;2.10;;;25.20;94.20;;;;;;4996059;28;20461;-72
2022/07/06 10:13:57;;;;;;;3.00;1.80;;;25.20;92.60;;;;;;4995579;28;20486;-72
2022/07/06 10:16:24;;;;;;;3.40;1.83;;;25.00;92.70;;;;;;4995773;28;20483;-71
2022/07/06 10:18:53;;;;;;;6.63;2.10;;;25.00;94.30;;;;;;4995896;28;20442;-73
2022/07/06 10:21:21;;;;;;;4.00;1.97;;;24.80;94.50;;;;;;4995596;28;20458;-72
2022/07/06 10:23:48;;;;;;;2.47;2.00;;;24.60;94.40;;;;;;4995436;28;20455;-72
2022/07/06 10:26:17;;;;;;;3.80;2.10;;;24.30;94.00;;;;;;4995445;28;20975;-72
2022/07/06 10:28:46;;;;;;;3.43;1.83;;;23.90;94.70;;;;;;4995569;28;20483;-71
2022/07/06 10:31:14;;;;;;;1.90;1.80;;;23.80;95.30;;;;;;4995379;28;20479;-71
2022/07/06 10:33:43;;;;;;;3.60;1.90;;;24.20;94.50;;;;;;4995539;28;20446;-71
2022/07/06 10:36:10;;;;;;;2.50;1.57;;;24.70;93.60;;;;;;4995525;28;20502;-72
2022/07/06 10:38:37;;;;;;;2.70;1.47;;;25.20;93.00;;;;;;4995548;28;20462;-71
2022/07/06 10:41:03;;;;;;;2.10;1.67;;;25.50;93.10;;;;;;4995449;28;20443;-72
2022/07/06 10:43:36;;;;;;;3.00;1.60;;;26.00;94.00;;;;;;4995178;28;20446;-72
2022/07/06 10:46:10;;;;;;;2.83;1.60;;;26.30;92.40;;;;;;4995118;28;20529;-71
2022/07/06 10:48:38;;;;;;;3.93;2.40;;;26.20;92.50;;;;;;4995450;28;20483;-71
2022/07/06 10:51:05;;;;;;;2.50;1.60;;;25.70;92.50;;;;;;4995198;28;20450;-71
2022/07/06 10:53:34;;;;;;;4.50;1.90;;;25.20;92.70;;;;;;4995195;28;21035;-71
2022/07/06 10:56:03;;;;;;;3.63;2.17;;;25.10;93.00;;;;;;4994994;28;20525;-72
2022/07/06 10:58:40;;;;;;;3.60;1.80;;;25.10;93.40;;;;;;4995242;28;20868;-72
2022/07/06 11:01:08;;;;;;;4.83;2.10;;;25.40;92.70;;;;;;4995206;28;20463;-73
2022/07/06 11:03:38;;;;;;;3.87;1.70;;;25.80;92.80;;;;;;4994903;28;20454;-72
2022/07/06 11:06:08;;;;;;;4.20;1.73;;;26.10;92.10;;;;;;4994930;28;20471;-73
2022/07/06 11:08:52;;;;;;;3.73;1.43;;;26.20;90.50;;;;;;4994734;28;20859;-72
2022/07/06 11:11:21;;;;;;;2.13;1.93;;;26.20;90.20;;;;;;4994956;28;20871;-72
2022/07/06 11:13:54;;;;;;;1.90;1.60;;;26.30;90.30;;;;;;4994635;28;20498;-72
2022/07/06 11:16:22;;;;;;;4.70;1.97;;;26.50;90.10;;;;;;4994831;28;21007;-72
2022/07/06 11:18:50;;;;;;;3.63;1.60;;;26.80;87.60;;;;;;4994783;28;20478;-71
2022/07/06 11:21:22;;;;;;;3.30;1.97;;;26.80;87.00;;;;;;4994542;28;20451;-72
2022/07/06 11:23:50;;;;;;;3.00;1.63;;;26.80;90.20;;;;;;4994329;28;20454;-72
2022/07/06 11:26:18;;;;;;;2.53;1.37;;;27.00;89.00;;;;;;4994444;28;20880;-72
2022/07/06 11:28:48;;;;;;;6.10;1.57;;;26.90;87.20;;;;;;4994521;28;20487;-72
2022/07/06 11:31:16;;;;;;;1.90;1.43;;;26.50;87.50;;;;;;4994272;28;20457;-72
2022/07/06 11:33:47;;;;;;;2.87;1.67;;;26.00;88.90;;;;;;4994431;28;20865;-72
2022/07/06 11:36:18;;;;;;;2.70;1.50;;;25.60;88.40;;;;;;4994610;28;20459;-72
2022/07/06 11:38:46;;;;;;;2.97;1.63;;;25.40;88.90;;;;;;4994395;28;20454;-72
2022/07/06 11:41:14;;;;;;;2.87;1.43;;;25.30;88.80;;;;;;4994227;28;20455;-71
2022/07/06 11:43:44;;;;;;;5.40;1.43;;;25.60;89.10;;;;;;4993978;28;20497;-72
2022/07/06 11:46:33;;;;;;;2.80;1.87;;;26.00;90.10;;;;;;4994411;28;20529;-72
2022/07/06 11:49:03;;;;;;;3.20;1.60;;;26.60;89.00;;;;;;4994442;28;20494;-72
2022/07/06 11:51:31;;;;;;;8.50;1.90;;;26.30;89.10;;;;;;4994245;28;20452;-72
2022/07/06 11:54:00;;;;;;;5.57;1.67;;;25.90;88.80;;;;;;4993931;28;20477;-72
2022/07/06 11:56:28;;;;;;;2.07;1.60;;;25.50;89.20;;;;;;4994309;28;20470;-72
2022/07/06 11:58:56;;;;;;;3.63;1.50;;;25.00;89.60;;;;;;4994273;28;20474;-72
2022/07/06 12:01:24;;;;;;;2.50;1.70;;;24.80;90.00;;;;;;4993988;28;20513;-71
2022/07/06 12:03:52;;;;;;;3.23;1.67;;;24.80;91.00;;;;;;4993759;28;20538;-72
2022/07/06 12:06:20;;;;;;;2.23;1.80;;;24.60;91.00;;;;;;4993778;28;20471;-71
2022/07/06 12:08:48;;;;;;;3.73;1.70;;;24.50;91.10;;;;;;4993559;28;21010;-71
2022/07/06 12:11:23;;;;;;;1.97;1.77;;;24.80;91.40;;;;;;4993650;28;20947;-71
2022/07/06 12:13:51;;;;;;;3.23;1.70;;;25.30;90.60;;;;;;4993695;28;20458;-71
2022/07/06 12:16:19;;;;;;;2.67;1.90;;;25.50;90.00;;;;;;4993596;28;21149;-71
2022/07/06 12:18:48;;;;;;;2.47;1.60;;;25.90;90.60;;;;;;4993587;28;20940;-72
2022/07/06 12:21:20;;;;;;;2.00;1.60;;;26.40;90.10;;;;;;4993438;28;20459;-71
2022/07/06 12:23:49;;;;;;;3.43;1.70;;;26.40;86.40;;;;;;4993287;28;20545;-71
2022/07/06 12:26:17;;;;;;;4.20;1.53;;;26.30;88.50;;;;;;4992817;28;20514;-72
2022/07/06 12:28:45;;;;;;;3.70;2.30;;;26.30;89.80;;;;;;4993508;28;20491;-72
2022/07/06 12:31:31;;;;;;;4.90;1.70;;;26.20;89.50;;;;;;4993314;28;20451;-71
2022/07/06 12:33:58;;;;;;;5.10;2.10;;;26.00;88.70;;;;;;4993397;28;20458;-71
2022/07/06 12:36:26;;;;;;;2.23;1.47;;;25.70;89.30;;;;;;4993463;28;20553;-72
2022/07/06 12:38:53;;;;;;;1.90;1.63;;;26.00;87.90;;;;;;4993095;28;20793;-71
2022/07/06 12:41:31;;;;;;;1.87;1.50;;;26.20;87.10;;;;;;4993164;28;20518;-72
2022/07/06 12:44:07;;;;;;;2.20;1.67;;;26.50;86.70;;;;;;4993251;28;20829;-71
2022/07/06 12:46:36;;;;;;;2.70;1.93;;;26.40;85.10;;;;;;4993145;28;20990;-71
2022/07/06 12:49:12;;;;;;;3.93;1.77;;;26.30;88.10;;;;;;4993081;28;20490;-71
2022/07/06 12:51:58;;;;;;;2.80;1.50;;;26.20;85.70;;;;;;4993163;28;20482;-72